sensor_id;sensor_type;location;lat;lon;timestamp;temperature;humidity
30473;DHT22;17263;48.160;11.452;2023-12-22T00:00:35;6.70;99.90
30473;DHT22;17263;48.160;11.452;2023-12-22T00:03:01;6.60;99.90
30473;DHT22;17263;48.160;11.452;2023-12-22T00:05:27;6.60;99.90
30473;DHT22;17263;48.160;11.452;2023-12-22T00:07:53;6.70;99.90
30473;DHT22;17263;48.160;11.452;2023-12-22T00:10:19;6.70;99.90
30473;DHT22;17263;48.160;11.452;2023-12-22T00:12:45;6.80;99.90
30473;DHT22;17263;48.160;11.452;2023-12-22T00:15:11;6.90;99.90
30473;DHT22;17263;48.160;11.452;2023-12-22T00:17:37;6.20;99.90
30473;DHT22;17263;48.160;11.452;2023-12-22T00:20:04;5.40;99.90
30473;DHT22;17263;48.160;11.452;2023-12-22T00:22:30;5.00;99.90
30473;DHT22;17263;48.160;11.452;2023-12-22T00:24:56;4.50;99.90
30473;DHT22;17263;48.160;11.452;2023-12-22T00:27:22;4.20;99.90
30473;DHT22;17263;48.160;11.452;2023-12-22T00:29:48;4.00;99.90
30473;DHT22;17263;48.160;11.452;2023-12-22T00:32:14;3.80;99.90
30473;DHT22;17263;48.160;11.452;2023-12-22T00:34:40;3.70;99.90
30473;DHT22;17263;48.160;11.452;2023-12-22T00:37:06;3.60;99.90
30473;DHT22;17263;48.160;11.452;2023-12-22T00:39:32;3.60;99.90
30473;DHT22;17263;48.160;11.452;2023-12-22T00:41:58;3.60;99.90
30473;DHT22;17263;48.160;11.452;2023-12-22T00:44:24;3.60;99.90
30473;DHT22;17263;48.160;11.452;2023-12-22T00:46:53;3.50;99.90
30473;DHT22;17263;48.160;11.452;2023-12-22T00:49:19;3.60;99.90
30473;DHT22;17263;48.160;11.452;2023-12-22T00:51:47;3.70;99.90
30473;DHT22;17263;48.160;11.452;2023-12-22T00:54:13;3.60;99.90
30473;DHT22;17263;48.160;11.452;2023-12-22T00:56:39;3.60;99.90
30473;DHT22;17263;48.160;11.452;2023-12-22T00:59:05;3.60;99.90
30473;DHT22;17263;48.160;11.452;2023-12-22T01:01:31;3.60;99.90
30473;DHT22;17263;48.160;11.452;2023-12-22T01:03:57;3.60;99.90
30473;DHT22;17263;48.160;11.452;2023-12-22T01:06:23;3.60;99.90
30473;DHT22;17263;48.160;11.452;2023-12-22T01:08:49;3.70;99.90
30473;DHT22;17263;48.160;11.452;2023-12-22T01:11:17;3.70;99.90
30473;DHT22;17263;48.160;11.452;2023-12-22T01:13:43;3.80;99.90
30473;DHT22;17263;48.160;11.452;2023-12-22T01:16:10;3.90;99.90
30473;DHT22;17263;48.160;11.452;2023-12-22T01:18:36;3.90;99.90
30473;DHT22;17263;48.160;11.452;2023-12-22T01:21:02;3.90;99.90
30473;DHT22;17263;48.160;11.452;2023-12-22T01:23:28;3.90;99.90
30473;DHT22;17263;48.160;11.452;2023-12-22T01:25:54;3.80;99.90
30473;DHT22;17263;48.160;11.452;2023-12-22T01:28:20;3.90;99.90
30473;DHT22;17263;48.160;11.452;2023-12-22T01:30:46;3.80;99.90
30473;DHT22;17263;48.160;11.452;2023-12-22T01:33:13;3.80;99.90
30473;DHT22;17263;48.160;11.452;2023-12-22T01:35:39;3.80;99.90
30473;DHT22;17263;48.160;11.452;2023-12-22T01:38:05;3.80;99.90
30473;DHT22;17263;48.160;11.452;2023-12-22T01:40:31;3.80;99.90
30473;DHT22;17263;48.160;11.452;2023-12-22T01:42:57;3.70;99.90
30473;DHT22;17263;48.160;11.452;2023-12-22T01:45:23;3.70;99.90
30473;DHT22;17263;48.160;11.452;2023-12-22T01:47:49;3.60;99.90
30473;DHT22;17263;48.160;11.452;2023-12-22T01:50:15;3.50;99.90
30473;DHT22;17263;48.160;11.452;2023-12-22T01:52:42;3.40;99.90
30473;DHT22;17263;48.160;11.452;2023-12-22T01:55:10;3.30;99.90
30473;DHT22;17263;48.160;11.452;2023-12-22T01:57:38;3.20;99.90
30473;DHT22;17263;48.160;11.452;2023-12-22T02:00:04;3.20;99.90
30473;DHT22;17263;48.160;11.452;2023-12-22T02:02:30;3.10;99.90
30473;DHT22;17263;48.160;11.452;2023-12-22T02:04:57;3.10;99.90
30473;DHT22;17263;48.160;11.452;2023-12-22T02:07:24;3.00;99.90
30473;DHT22;17263;48.160;11.452;2023-12-22T02:09:50;3.00;99.90
30473;DHT22;17263;48.160;11.452;2023-12-22T02:12:16;2.90;99.90
30473;DHT22;17263;48.160;11.452;2023-12-22T02:14:42;3.00;99.90
30473;DHT22;17263;48.160;11.452;2023-12-22T02:17:18;3.00;99.90
30473;DHT22;17263;48.160;11.452;2023-12-22T02:19:48;3.00;99.90
30473;DHT22;17263;48.160;11.452;2023-12-22T02:22:14;2.90;99.90
30473;DHT22;17263;48.160;11.452;2023-12-22T02:24:41;2.80;99.90
30473;DHT22;17263;48.160;11.452;2023-12-22T02:30:08;2.70;99.90
30473;DHT22;17263;48.160;11.452;2023-12-22T02:32:38;2.70;99.90
30473;DHT22;17263;48.160;11.452;2023-12-22T02:35:11;2.70;99.90
30473;DHT22;17263;48.160;11.452;2023-12-22T02:37:40;2.80;99.90
30473;DHT22;17263;48.160;11.452;2023-12-22T02:40:08;2.80;99.90
30473;DHT22;17263;48.160;11.452;2023-12-22T02:42:37;2.70;99.90
30473;DHT22;17263;48.160;11.452;2023-12-22T02:45:05;2.70;99.90
30473;DHT22;17263;48.160;11.452;2023-12-22T02:47:31;2.60;99.90
30473;DHT22;17263;48.160;11.452;2023-12-22T02:49:59;2.70;99.90
30473;DHT22;17263;48.160;11.452;2023-12-22T02:52:25;2.80;99.90
30473;DHT22;17263;48.160;11.452;2023-12-22T02:54:51;2.80;99.90
30473;DHT22;17263;48.160;11.452;2023-12-22T02:57:17;2.80;99.90
30473;DHT22;17263;48.160;11.452;2023-12-22T02:59:43;2.90;99.90
30473;DHT22;17263;48.160;11.452;2023-12-22T03:02:09;2.90;99.90
30473;DHT22;17263;48.160;11.452;2023-12-22T03:04:35;2.90;99.90
30473;DHT22;17263;48.160;11.452;2023-12-22T03:07:01;2.90;99.90
30473;DHT22;17263;48.160;11.452;2023-12-22T03:09:27;3.00;99.90
30473;DHT22;17263;48.160;11.452;2023-12-22T03:11:53;3.00;99.90
30473;DHT22;17263;48.160;11.452;2023-12-22T03:14:20;3.00;99.90
30473;DHT22;17263;48.160;11.452;2023-12-22T03:16:46;3.10;99.90
30473;DHT22;17263;48.160;11.452;2023-12-22T03:19:12;3.00;99.90
30473;DHT22;17263;48.160;11.452;2023-12-22T03:21:38;3.00;99.90
30473;DHT22;17263;48.160;11.452;2023-12-22T03:24:04;3.00;99.90
30473;DHT22;17263;48.160;11.452;2023-12-22T03:26:30;3.00;99.90
30473;DHT22;17263;48.160;11.452;2023-12-22T03:28:56;3.00;99.90
30473;DHT22;17263;48.160;11.452;2023-12-22T03:31:22;3.00;99.90
30473;DHT22;17263;48.160;11.452;2023-12-22T03:33:48;3.00;99.90
30473;DHT22;17263;48.160;11.452;2023-12-22T03:36:14;3.00;99.90
30473;DHT22;17263;48.160;11.452;2023-12-22T03:38:40;3.00;99.90
30473;DHT22;17263;48.160;11.452;2023-12-22T03:41:06;3.00;99.90
30473;DHT22;17263;48.160;11.452;2023-12-22T03:43:32;3.10;99.90
30473;DHT22;17263;48.160;11.452;2023-12-22T03:45:59;3.10;99.90
30473;DHT22;17263;48.160;11.452;2023-12-22T03:48:25;3.10;99.90
30473;DHT22;17263;48.160;11.452;2023-12-22T03:50:51;3.10;99.90
30473;DHT22;17263;48.160;11.452;2023-12-22T03:53:17;3.10;99.90
30473;DHT22;17263;48.160;11.452;2023-12-22T03:55:43;3.20;99.90
30473;DHT22;17263;48.160;11.452;2023-12-22T03:58:09;3.50;99.90
30473;DHT22;17263;48.160;11.452;2023-12-22T04:00:36;3.70;99.90
30473;DHT22;17263;48.160;11.452;2023-12-22T04:03:02;3.80;99.90
30473;DHT22;17263;48.160;11.452;2023-12-22T04:05:28;3.90;99.90
30473;DHT22;17263;48.160;11.452;2023-12-22T04:07:54;4.00;99.90
30473;DHT22;17263;48.160;11.452;2023-12-22T04:10:20;4.10;99.90
30473;DHT22;17263;48.160;11.452;2023-12-22T04:12:46;4.20;99.90
30473;DHT22;17263;48.160;11.452;2023-12-22T04:15:12;4.30;99.90
30473;DHT22;17263;48.160;11.452;2023-12-22T04:17:39;4.40;99.90
30473;DHT22;17263;48.160;11.452;2023-12-22T04:20:06;4.50;99.90
30473;DHT22;17263;48.160;11.452;2023-12-22T04:22:32;4.50;99.90
30473;DHT22;17263;48.160;11.452;2023-12-22T04:24:59;4.60;99.90
30473;DHT22;17263;48.160;11.452;2023-12-22T04:27:25;4.60;99.90
30473;DHT22;17263;48.160;11.452;2023-12-22T04:29:51;4.70;99.90
30473;DHT22;17263;48.160;11.452;2023-12-22T04:32:17;4.70;99.90
30473;DHT22;17263;48.160;11.452;2023-12-22T04:34:43;4.70;99.90
30473;DHT22;17263;48.160;11.452;2023-12-22T04:37:09;4.70;99.90
30473;DHT22;17263;48.160;11.452;2023-12-22T04:39:35;4.80;99.90
30473;DHT22;17263;48.160;11.452;2023-12-22T04:42:01;4.80;99.90
30473;DHT22;17263;48.160;11.452;2023-12-22T04:44:27;4.80;99.90
30473;DHT22;17263;48.160;11.452;2023-12-22T04:46:53;4.80;99.90
30473;DHT22;17263;48.160;11.452;2023-12-22T04:49:19;4.80;99.90
30473;DHT22;17263;48.160;11.452;2023-12-22T04:51:45;4.80;99.90
30473;DHT22;17263;48.160;11.452;2023-12-22T04:54:11;4.80;99.90
30473;DHT22;17263;48.160;11.452;2023-12-22T04:56:37;4.90;99.90
30473;DHT22;17263;48.160;11.452;2023-12-22T04:59:03;4.90;99.90
30473;DHT22;17263;48.160;11.452;2023-12-22T05:01:29;5.10;99.90
30473;DHT22;17263;48.160;11.452;2023-12-22T05:03:55;5.00;99.90
30473;DHT22;17263;48.160;11.452;2023-12-22T05:06:21;5.00;99.90
30473;DHT22;17263;48.160;11.452;2023-12-22T05:08:47;5.10;99.90
30473;DHT22;17263;48.160;11.452;2023-12-22T05:11:13;5.20;99.90
30473;DHT22;17263;48.160;11.452;2023-12-22T05:13:39;5.20;99.90
30473;DHT22;17263;48.160;11.452;2023-12-22T05:16:07;5.30;99.90
30473;DHT22;17263;48.160;11.452;2023-12-22T05:18:33;5.30;99.90
30473;DHT22;17263;48.160;11.452;2023-12-22T05:20:59;5.30;99.90
30473;DHT22;17263;48.160;11.452;2023-12-22T05:23:25;5.40;99.90
30473;DHT22;17263;48.160;11.452;2023-12-22T05:25:51;5.40;99.90
30473;DHT22;17263;48.160;11.452;2023-12-22T05:28:17;5.40;99.90
30473;DHT22;17263;48.160;11.452;2023-12-22T05:30:43;5.50;99.90
30473;DHT22;17263;48.160;11.452;2023-12-22T05:33:09;5.50;99.90
30473;DHT22;17263;48.160;11.452;2023-12-22T05:35:35;5.60;99.90
30473;DHT22;17263;48.160;11.452;2023-12-22T05:38:01;5.60;99.90
30473;DHT22;17263;48.160;11.452;2023-12-22T05:40:28;5.60;99.90
30473;DHT22;17263;48.160;11.452;2023-12-22T05:42:54;5.60;99.90
30473;DHT22;17263;48.160;11.452;2023-12-22T05:45:20;5.60;99.90
30473;DHT22;17263;48.160;11.452;2023-12-22T05:47:46;5.60;99.90
30473;DHT22;17263;48.160;11.452;2023-12-22T05:50:12;5.60;99.90
30473;DHT22;17263;48.160;11.452;2023-12-22T05:52:38;5.60;99.90
30473;DHT22;17263;48.160;11.452;2023-12-22T05:55:05;5.60;99.90
30473;DHT22;17263;48.160;11.452;2023-12-22T05:57:31;5.60;99.90
30473;DHT22;17263;48.160;11.452;2023-12-22T05:59:57;5.60;99.90
30473;DHT22;17263;48.160;11.452;2023-12-22T06:02:23;5.50;99.90
30473;DHT22;17263;48.160;11.452;2023-12-22T06:04:50;5.40;99.90
30473;DHT22;17263;48.160;11.452;2023-12-22T06:07:16;5.40;99.90
30473;DHT22;17263;48.160;11.452;2023-12-22T06:09:42;5.40;99.90
30473;DHT22;17263;48.160;11.452;2023-12-22T06:12:08;5.40;99.90
30473;DHT22;17263;48.160;11.452;2023-12-22T06:14:34;5.40;99.90
30473;DHT22;17263;48.160;11.452;2023-12-22T06:17:00;5.30;99.90
30473;DHT22;17263;48.160;11.452;2023-12-22T06:19:26;5.30;99.90
30473;DHT22;17263;48.160;11.452;2023-12-22T06:21:54;5.20;99.90
30473;DHT22;17263;48.160;11.452;2023-12-22T06:24:20;5.20;99.90
30473;DHT22;17263;48.160;11.452;2023-12-22T06:26:46;5.10;99.90
30473;DHT22;17263;48.160;11.452;2023-12-22T06:29:13;5.20;99.90
30473;DHT22;17263;48.160;11.452;2023-12-22T06:31:39;5.20;99.90
30473;DHT22;17263;48.160;11.452;2023-12-22T06:34:05;5.10;99.90
30473;DHT22;17263;48.160;11.452;2023-12-22T06:36:31;5.20;99.90
30473;DHT22;17263;48.160;11.452;2023-12-22T06:38:57;5.10;99.90
30473;DHT22;17263;48.160;11.452;2023-12-22T06:41:30;5.10;99.90
30473;DHT22;17263;48.160;11.452;2023-12-22T06:43:57;5.10;99.90
30473;DHT22;17263;48.160;11.452;2023-12-22T06:46:25;5.20;99.90
30473;DHT22;17263;48.160;11.452;2023-12-22T06:48:52;5.30;99.90
30473;DHT22;17263;48.160;11.452;2023-12-22T06:51:29;5.40;99.90
30473;DHT22;17263;48.160;11.452;2023-12-22T06:54:01;5.40;99.90
30473;DHT22;17263;48.160;11.452;2023-12-22T06:56:29;5.40;99.90
30473;DHT22;17263;48.160;11.452;2023-12-22T06:58:56;5.40;99.90
30473;DHT22;17263;48.160;11.452;2023-12-22T07:01:30;5.50;99.90
30473;DHT22;17263;48.160;11.452;2023-12-22T07:04:00;5.50;99.90
30473;DHT22;17263;48.160;11.452;2023-12-22T07:06:31;5.50;99.90
30473;DHT22;17263;48.160;11.452;2023-12-22T07:09:27;5.50;99.90
30473;DHT22;17263;48.160;11.452;2023-12-22T07:11:52;5.50;99.90
30473;DHT22;17263;48.160;11.452;2023-12-22T07:14:18;5.60;99.90
30473;DHT22;17263;48.160;11.452;2023-12-22T07:16:44;5.60;99.90
30473;DHT22;17263;48.160;11.452;2023-12-22T07:19:11;5.70;99.90
30473;DHT22;17263;48.160;11.452;2023-12-22T07:21:39;5.70;99.90
30473;DHT22;17263;48.160;11.452;2023-12-22T07:24:06;5.70;99.90
30473;DHT22;17263;48.160;11.452;2023-12-22T07:26:33;5.60;99.90
30473;DHT22;17263;48.160;11.452;2023-12-22T07:28:59;5.60;99.90
30473;DHT22;17263;48.160;11.452;2023-12-22T07:31:25;5.60;99.90
30473;DHT22;17263;48.160;11.452;2023-12-22T07:33:51;5.60;99.90
30473;DHT22;17263;48.160;11.452;2023-12-22T07:36:18;5.60;99.90
30473;DHT22;17263;48.160;11.452;2023-12-22T07:38:47;5.50;99.90
30473;DHT22;17263;48.160;11.452;2023-12-22T07:41:13;5.40;99.90
30473;DHT22;17263;48.160;11.452;2023-12-22T07:43:39;5.50;99.90
30473;DHT22;17263;48.160;11.452;2023-12-22T07:46:05;5.50;99.90
30473;DHT22;17263;48.160;11.452;2023-12-22T07:48:31;5.50;99.90
30473;DHT22;17263;48.160;11.452;2023-12-22T07:50:57;5.50;99.90
30473;DHT22;17263;48.160;11.452;2023-12-22T07:53:23;5.60;99.90
30473;DHT22;17263;48.160;11.452;2023-12-22T07:55:49;5.60;99.90
30473;DHT22;17263;48.160;11.452;2023-12-22T07:58:15;5.60;99.90
30473;DHT22;17263;48.160;11.452;2023-12-22T08:00:43;5.70;99.90
30473;DHT22;17263;48.160;11.452;2023-12-22T08:03:09;5.80;99.90
30473;DHT22;17263;48.160;11.452;2023-12-22T08:05:35;5.80;99.90
30473;DHT22;17263;48.160;11.452;2023-12-22T08:08:01;5.90;99.90
30473;DHT22;17263;48.160;11.452;2023-12-22T08:10:27;5.90;99.90
30473;DHT22;17263;48.160;11.452;2023-12-22T08:12:53;5.90;99.90
30473;DHT22;17263;48.160;11.452;2023-12-22T08:15:19;5.90;99.90
30473;DHT22;17263;48.160;11.452;2023-12-22T08:17:46;5.90;99.90
30473;DHT22;17263;48.160;11.452;2023-12-22T08:20:20;5.80;99.90
30473;DHT22;17263;48.160;11.452;2023-12-22T08:22:47;5.70;99.90
30473;DHT22;17263;48.160;11.452;2023-12-22T08:25:14;5.70;99.90
30473;DHT22;17263;48.160;11.452;2023-12-22T08:27:41;5.50;99.90
30473;DHT22;17263;48.160;11.452;2023-12-22T08:30:11;5.60;99.90
30473;DHT22;17263;48.160;11.452;2023-12-22T08:32:38;5.50;99.90
30473;DHT22;17263;48.160;11.452;2023-12-22T08:35:04;5.50;99.90
30473;DHT22;17263;48.160;11.452;2023-12-22T08:37:30;5.50;99.90
30473;DHT22;17263;48.160;11.452;2023-12-22T08:39:56;5.40;99.90
30473;DHT22;17263;48.160;11.452;2023-12-22T08:42:24;5.50;99.90
30473;DHT22;17263;48.160;11.452;2023-12-22T08:44:51;5.60;99.90
30473;DHT22;17263;48.160;11.452;2023-12-22T08:47:17;5.60;99.90
30473;DHT22;17263;48.160;11.452;2023-12-22T08:49:43;5.70;99.90
30473;DHT22;17263;48.160;11.452;2023-12-22T08:52:09;5.70;99.90
30473;DHT22;17263;48.160;11.452;2023-12-22T08:54:35;5.70;99.90
30473;DHT22;17263;48.160;11.452;2023-12-22T08:57:02;5.80;99.90
30473;DHT22;17263;48.160;11.452;2023-12-22T08:59:28;5.90;99.90
30473;DHT22;17263;48.160;11.452;2023-12-22T09:01:54;5.90;99.90
30473;DHT22;17263;48.160;11.452;2023-12-22T09:04:20;6.00;99.90
30473;DHT22;17263;48.160;11.452;2023-12-22T09:06:51;6.00;99.90
30473;DHT22;17263;48.160;11.452;2023-12-22T09:09:17;6.10;99.90
30473;DHT22;17263;48.160;11.452;2023-12-22T09:11:43;6.10;99.90
30473;DHT22;17263;48.160;11.452;2023-12-22T09:14:10;6.30;99.90
30473;DHT22;17263;48.160;11.452;2023-12-22T09:16:37;6.30;99.90
30473;DHT22;17263;48.160;11.452;2023-12-22T09:19:04;6.30;99.90
30473;DHT22;17263;48.160;11.452;2023-12-22T09:21:30;6.30;99.90
30473;DHT22;17263;48.160;11.452;2023-12-22T09:23:56;6.40;99.90
30473;DHT22;17263;48.160;11.452;2023-12-22T09:26:22;6.40;99.90
30473;DHT22;17263;48.160;11.452;2023-12-22T09:28:48;6.50;99.90
30473;DHT22;17263;48.160;11.452;2023-12-22T09:31:14;6.50;99.90
30473;DHT22;17263;48.160;11.452;2023-12-22T09:33:41;6.60;99.90
30473;DHT22;17263;48.160;11.452;2023-12-22T09:36:08;6.50;99.90
30473;DHT22;17263;48.160;11.452;2023-12-22T09:38:34;6.60;99.90
30473;DHT22;17263;48.160;11.452;2023-12-22T09:41:01;6.50;99.90
30473;DHT22;17263;48.160;11.452;2023-12-22T09:43:27;6.60;99.90
30473;DHT22;17263;48.160;11.452;2023-12-22T09:45:54;6.60;99.90
30473;DHT22;17263;48.160;11.452;2023-12-22T09:48:21;6.50;99.90
30473;DHT22;17263;48.160;11.452;2023-12-22T09:50:54;6.50;99.90
30473;DHT22;17263;48.160;11.452;2023-12-22T09:53:20;6.50;99.90
30473;DHT22;17263;48.160;11.452;2023-12-22T09:55:49;6.40;99.90
30473;DHT22;17263;48.160;11.452;2023-12-22T09:58:15;6.40;99.90
30473;DHT22;17263;48.160;11.452;2023-12-22T10:00:45;6.30;99.90
30473;DHT22;17263;48.160;11.452;2023-12-22T10:03:12;6.20;99.90
30473;DHT22;17263;48.160;11.452;2023-12-22T10:05:41;6.10;99.90
30473;DHT22;17263;48.160;11.452;2023-12-22T10:08:09;6.10;99.90
30473;DHT22;17263;48.160;11.452;2023-12-22T10:10:39;6.00;99.90
30473;DHT22;17263;48.160;11.452;2023-12-22T10:13:11;5.90;99.90
30473;DHT22;17263;48.160;11.452;2023-12-22T10:15:40;5.80;99.90
30473;DHT22;17263;48.160;11.452;2023-12-22T10:18:09;5.70;99.90
30473;DHT22;17263;48.160;11.452;2023-12-22T10:20:35;5.60;99.90
30473;DHT22;17263;48.160;11.452;2023-12-22T10:23:02;5.50;99.90
30473;DHT22;17263;48.160;11.452;2023-12-22T10:25:28;5.50;99.90
30473;DHT22;17263;48.160;11.452;2023-12-22T10:27:58;5.40;99.90
30473;DHT22;17263;48.160;11.452;2023-12-22T10:30:25;5.30;99.90
30473;DHT22;17263;48.160;11.452;2023-12-22T10:32:51;5.30;99.90
30473;DHT22;17263;48.160;11.452;2023-12-22T10:35:17;5.30;99.90
30473;DHT22;17263;48.160;11.452;2023-12-22T10:37:45;5.30;99.90
30473;DHT22;17263;48.160;11.452;2023-12-22T10:40:13;5.20;99.90
30473;DHT22;17263;48.160;11.452;2023-12-22T10:42:42;5.20;99.90
30473;DHT22;17263;48.160;11.452;2023-12-22T10:45:08;5.20;99.90
30473;DHT22;17263;48.160;11.452;2023-12-22T10:47:35;5.20;99.90
30473;DHT22;17263;48.160;11.452;2023-12-22T10:50:04;5.10;99.90
30473;DHT22;17263;48.160;11.452;2023-12-22T10:52:30;5.10;99.90
30473;DHT22;17263;48.160;11.452;2023-12-22T10:54:59;5.20;99.90
30473;DHT22;17263;48.160;11.452;2023-12-22T10:57:26;5.30;99.90
30473;DHT22;17263;48.160;11.452;2023-12-22T10:59:56;5.30;99.90
30473;DHT22;17263;48.160;11.452;2023-12-22T11:02:22;5.40;99.90
30473;DHT22;17263;48.160;11.452;2023-12-22T11:04:57;5.60;99.90
30473;DHT22;17263;48.160;11.452;2023-12-22T11:07:28;5.60;99.90
30473;DHT22;17263;48.160;11.452;2023-12-22T11:09:56;5.80;99.90
30473;DHT22;17263;48.160;11.452;2023-12-22T11:12:28;5.80;99.90
30473;DHT22;17263;48.160;11.452;2023-12-22T11:14:56;5.80;99.90
30473;DHT22;17263;48.160;11.452;2023-12-22T11:17:23;5.80;99.90
30473;DHT22;17263;48.160;11.452;2023-12-22T11:19:49;5.80;99.90
30473;DHT22;17263;48.160;11.452;2023-12-22T11:22:18;5.90;99.90
30473;DHT22;17263;48.160;11.452;2023-12-22T11:24:48;5.80;99.90
30473;DHT22;17263;48.160;11.452;2023-12-22T11:27:19;5.90;99.90
30473;DHT22;17263;48.160;11.452;2023-12-22T11:29:50;5.90;99.90
30473;DHT22;17263;48.160;11.452;2023-12-22T11:32:17;5.90;99.90
30473;DHT22;17263;48.160;11.452;2023-12-22T11:34:47;5.90;99.90
30473;DHT22;17263;48.160;11.452;2023-12-22T11:37:15;5.90;99.90
30473;DHT22;17263;48.160;11.452;2023-12-22T11:39:42;5.90;99.90
30473;DHT22;17263;48.160;11.452;2023-12-22T11:42:11;5.90;99.90
30473;DHT22;17263;48.160;11.452;2023-12-22T11:44:38;6.00;99.90
30473;DHT22;17263;48.160;11.452;2023-12-22T11:47:09;6.00;99.90
30473;DHT22;17263;48.160;11.452;2023-12-22T11:49:36;5.90;99.90
30473;DHT22;17263;48.160;11.452;2023-12-22T11:52:18;5.90;99.90
30473;DHT22;17263;48.160;11.452;2023-12-22T11:54:47;5.90;99.90
30473;DHT22;17263;48.160;11.452;2023-12-22T11:57:36;5.90;99.90
30473;DHT22;17263;48.160;11.452;2023-12-22T12:00:04;5.90;99.90
30473;DHT22;17263;48.160;11.452;2023-12-22T12:02:35;5.90;99.90
30473;DHT22;17263;48.160;11.452;2023-12-22T12:05:04;5.90;99.90
30473;DHT22;17263;48.160;11.452;2023-12-22T12:13:11;6.00;99.90
30473;DHT22;17263;48.160;11.452;2023-12-22T12:15:38;5.90;99.90
30473;DHT22;17263;48.160;11.452;2023-12-22T12:18:07;5.90;99.90
30473;DHT22;17263;48.160;11.452;2023-12-22T12:20:34;6.00;99.90
30473;DHT22;17263;48.160;11.452;2023-12-22T12:23:04;6.00;99.90
30473;DHT22;17263;48.160;11.452;2023-12-22T12:25:33;6.00;99.90
30473;DHT22;17263;48.160;11.452;2023-12-22T12:28:06;6.00;99.90
30473;DHT22;17263;48.160;11.452;2023-12-22T12:30:33;6.00;99.90
30473;DHT22;17263;48.160;11.452;2023-12-22T12:33:11;5.90;99.90
30473;DHT22;17263;48.160;11.452;2023-12-22T12:35:41;5.90;99.90
30473;DHT22;17263;48.160;11.452;2023-12-22T12:38:09;6.00;99.90
30473;DHT22;17263;48.160;11.452;2023-12-22T12:40:39;5.90;99.90
30473;DHT22;17263;48.160;11.452;2023-12-22T12:43:06;6.00;99.90
30473;DHT22;17263;48.160;11.452;2023-12-22T12:45:32;6.00;99.90
30473;DHT22;17263;48.160;11.452;2023-12-22T12:48:00;6.00;99.90
30473;DHT22;17263;48.160;11.452;2023-12-22T12:50:27;6.00;99.90
30473;DHT22;17263;48.160;11.452;2023-12-22T12:52:55;6.00;99.90
30473;DHT22;17263;48.160;11.452;2023-12-22T12:55:23;6.00;99.90
30473;DHT22;17263;48.160;11.452;2023-12-22T12:57:50;6.10;99.90
30473;DHT22;17263;48.160;11.452;2023-12-22T13:00:30;6.20;99.90
30473;DHT22;17263;48.160;11.452;2023-12-22T13:03:00;6.20;99.90
30473;DHT22;17263;48.160;11.452;2023-12-22T13:05:26;6.20;99.90
30473;DHT22;17263;48.160;11.452;2023-12-22T13:07:52;6.10;99.90
30473;DHT22;17263;48.160;11.452;2023-12-22T13:10:22;6.10;99.90
30473;DHT22;17263;48.160;11.452;2023-12-22T13:12:50;6.00;99.90
30473;DHT22;17263;48.160;11.452;2023-12-22T13:15:16;6.00;99.90
30473;DHT22;17263;48.160;11.452;2023-12-22T13:17:44;5.90;99.90
30473;DHT22;17263;48.160;11.452;2023-12-22T13:20:10;5.90;99.90
30473;DHT22;17263;48.160;11.452;2023-12-22T13:22:37;5.90;99.90
30473;DHT22;17263;48.160;11.452;2023-12-22T13:25:03;5.80;99.90
30473;DHT22;17263;48.160;11.452;2023-12-22T13:27:30;5.80;99.90
30473;DHT22;17263;48.160;11.452;2023-12-22T13:29:56;5.80;99.90
30473;DHT22;17263;48.160;11.452;2023-12-22T13:32:23;5.90;99.90
30473;DHT22;17263;48.160;11.452;2023-12-22T13:34:51;5.80;99.90
30473;DHT22;17263;48.160;11.452;2023-12-22T13:37:17;5.80;99.90
30473;DHT22;17263;48.160;11.452;2023-12-22T13:39:44;5.80;99.90
30473;DHT22;17263;48.160;11.452;2023-12-22T13:42:17;5.80;99.90
30473;DHT22;17263;48.160;11.452;2023-12-22T13:44:44;5.80;99.90
30473;DHT22;17263;48.160;11.452;2023-12-22T13:47:14;5.90;99.90
30473;DHT22;17263;48.160;11.452;2023-12-22T13:49:41;6.00;99.90
30473;DHT22;17263;48.160;11.452;2023-12-22T13:52:08;6.00;99.90
30473;DHT22;17263;48.160;11.452;2023-12-22T13:54:34;6.00;99.90
30473;DHT22;17263;48.160;11.452;2023-12-22T13:57:00;6.00;99.90
30473;DHT22;17263;48.160;11.452;2023-12-22T13:59:33;6.10;99.90
30473;DHT22;17263;48.160;11.452;2023-12-22T14:02:00;6.10;99.90
30473;DHT22;17263;48.160;11.452;2023-12-22T14:04:27;6.10;99.90
30473;DHT22;17263;48.160;11.452;2023-12-22T14:06:53;6.10;99.90
30473;DHT22;17263;48.160;11.452;2023-12-22T14:09:19;6.20;99.90
30473;DHT22;17263;48.160;11.452;2023-12-22T14:11:49;6.20;99.90
30473;DHT22;17263;48.160;11.452;2023-12-22T14:14:15;6.20;99.90
30473;DHT22;17263;48.160;11.452;2023-12-22T14:16:43;6.20;99.90
30473;DHT22;17263;48.160;11.452;2023-12-22T14:19:09;6.20;99.90
30473;DHT22;17263;48.160;11.452;2023-12-22T14:21:35;6.20;99.90
30473;DHT22;17263;48.160;11.452;2023-12-22T14:24:01;6.20;99.90
30473;DHT22;17263;48.160;11.452;2023-12-22T14:26:27;6.30;99.90
30473;DHT22;17263;48.160;11.452;2023-12-22T14:28:53;6.30;99.90
30473;DHT22;17263;48.160;11.452;2023-12-22T14:31:19;6.30;99.90
30473;DHT22;17263;48.160;11.452;2023-12-22T14:33:46;6.30;99.90
30473;DHT22;17263;48.160;11.452;2023-12-22T14:36:12;6.30;99.90
30473;DHT22;17263;48.160;11.452;2023-12-22T14:38:38;6.40;99.90
30473;DHT22;17263;48.160;11.452;2023-12-22T14:41:04;6.30;99.90
30473;DHT22;17263;48.160;11.452;2023-12-22T14:43:32;6.30;99.90
30473;DHT22;17263;48.160;11.452;2023-12-22T14:45:58;6.30;99.90
30473;DHT22;17263;48.160;11.452;2023-12-22T14:48:24;6.30;99.90
30473;DHT22;17263;48.160;11.452;2023-12-22T14:50:50;6.30;99.90
30473;DHT22;17263;48.160;11.452;2023-12-22T14:53:16;6.40;99.90
30473;DHT22;17263;48.160;11.452;2023-12-22T14:55:42;6.40;99.90
30473;DHT22;17263;48.160;11.452;2023-12-22T14:58:08;6.40;99.90
30473;DHT22;17263;48.160;11.452;2023-12-22T15:00:36;6.40;99.90
30473;DHT22;17263;48.160;11.452;2023-12-22T15:03:02;6.30;99.90
30473;DHT22;17263;48.160;11.452;2023-12-22T15:05:28;6.30;99.90
30473;DHT22;17263;48.160;11.452;2023-12-22T15:07:55;6.30;99.90
30473;DHT22;17263;48.160;11.452;2023-12-22T15:10:21;6.30;99.90
30473;DHT22;17263;48.160;11.452;2023-12-22T15:12:47;6.30;99.90
30473;DHT22;17263;48.160;11.452;2023-12-22T15:15:14;6.30;99.90
30473;DHT22;17263;48.160;11.452;2023-12-22T15:17:40;6.40;99.90
30473;DHT22;17263;48.160;11.452;2023-12-22T15:20:07;6.40;99.90
30473;DHT22;17263;48.160;11.452;2023-12-22T15:22:34;6.40;99.90
30473;DHT22;17263;48.160;11.452;2023-12-22T15:25:00;6.40;99.90
30473;DHT22;17263;48.160;11.452;2023-12-22T15:27:26;6.40;99.90
30473;DHT22;17263;48.160;11.452;2023-12-22T15:29:52;6.40;99.90
30473;DHT22;17263;48.160;11.452;2023-12-22T15:32:19;6.40;99.90
30473;DHT22;17263;48.160;11.452;2023-12-22T15:34:45;6.40;99.90
30473;DHT22;17263;48.160;11.452;2023-12-22T15:37:12;6.50;99.90